sensor_id;sensor_type;location;lat;lon;timestamp;temperature;humidity
9666;DHT22;4871;52.004;5.924;2023-10-31T00:00:00;12.8;86.9
9666;DHT22;4871;52.004;5.924;2023-10-31T00:01:00;12.9;86.7
9666;DHT22;4871;52.004;5.924;2023-10-31T00:02:01;12.8;86.5
9666;DHT22;4871;52.004;5.924;2023-10-31T00:03:00;12.8;87.0
9666;DHT22;4871;52.004;5.924;2023-10-31T00:04:00;12.7;86.9
9666;DHT22;4871;52.004;5.924;2023-10-31T00:05:00;12.7;86.8
9666;DHT22;4871;52.004;5.924;2023-10-31T00:06:00;12.7;87.0
9666;DHT22;4871;52.004;5.924;2023-10-31T00:07:00;12.7;87.1
9666;DHT22;4871;52.004;5.924;2023-10-31T00:08:00;12.6;87.3
9666;DHT22;4871;52.004;5.924;2023-10-31T00:09:00;12.6;87.1
9666;DHT22;4871;52.004;5.924;2023-10-31T00:10:00;12.6;86.9
9666;DHT22;4871;52.004;5.924;2023-10-31T00:11:00;12.6;86.6
9666;DHT22;4871;52.004;5.924;2023-10-31T00:12:00;12.6;86.7
9666;DHT22;4871;52.004;5.924;2023-10-31T00:13:00;12.6;86.6
9666;DHT22;4871;52.004;5.924;2023-10-31T00:14:00;12.6;86.9
9666;DHT22;4871;52.004;5.924;2023-10-31T00:15:00;12.6;86.6
9666;DHT22;4871;52.004;5.924;2023-10-31T00:16:00;12.6;87.1
9666;DHT22;4871;52.004;5.924;2023-10-31T00:17:00;12.5;86.8
9666;DHT22;4871;52.004;5.924;2023-10-31T00:18:00;12.5;86.8
9666;DHT22;4871;52.004;5.924;2023-10-31T00:19:00;12.5;86.8
9666;DHT22;4871;52.004;5.924;2023-10-31T00:20:00;12.5;86.9
9666;DHT22;4871;52.004;5.924;2023-10-31T00:21:00;12.5;86.9
9666;DHT22;4871;52.004;5.924;2023-10-31T00:22:00;12.5;86.6
9666;DHT22;4871;52.004;5.924;2023-10-31T00:23:00;12.5;86.8
9666;DHT22;4871;52.004;5.924;2023-10-31T00:24:00;12.4;86.8
9666;DHT22;4871;52.004;5.924;2023-10-31T00:25:00;12.4;86.4
9666;DHT22;4871;52.004;5.924;2023-10-31T00:26:00;12.4;86.7
9666;DHT22;4871;52.004;5.924;2023-10-31T00:27:00;12.4;86.9
9666;DHT22;4871;52.004;5.924;2023-10-31T00:28:00;12.4;87.0
9666;DHT22;4871;52.004;5.924;2023-10-31T00:29:00;12.3;86.8
9666;DHT22;4871;52.004;5.924;2023-10-31T00:30:00;12.3;87.0
9666;DHT22;4871;52.004;5.924;2023-10-31T00:31:01;12.3;86.8
9666;DHT22;4871;52.004;5.924;2023-10-31T00:32:00;12.3;86.6
9666;DHT22;4871;52.004;5.924;2023-10-31T00:33:00;12.3;86.8
9666;DHT22;4871;52.004;5.924;2023-10-31T00:34:00;12.3;86.7
9666;DHT22;4871;52.004;5.924;2023-10-31T00:35:00;12.3;86.8
9666;DHT22;4871;52.004;5.924;2023-10-31T00:36:01;12.2;87.3
9666;DHT22;4871;52.004;5.924;2023-10-31T00:37:00;12.3;86.7
9666;DHT22;4871;52.004;5.924;2023-10-31T00:38:00;12.3;86.7
9666;DHT22;4871;52.004;5.924;2023-10-31T00:39:00;12.2;86.9
9666;DHT22;4871;52.004;5.924;2023-10-31T00:40:00;12.2;87.1
9666;DHT22;4871;52.004;5.924;2023-10-31T00:41:00;12.2;86.5
9666;DHT22;4871;52.004;5.924;2023-10-31T00:42:00;12.2;86.7
9666;DHT22;4871;52.004;5.924;2023-10-31T00:43:01;12.2;86.8
9666;DHT22;4871;52.004;5.924;2023-10-31T00:44:00;12.3;86.5
9666;DHT22;4871;52.004;5.924;2023-10-31T00:45:00;12.2;86.8
9666;DHT22;4871;52.004;5.924;2023-10-31T00:46:02;12.2;86.9
9666;DHT22;4871;52.004;5.924;2023-10-31T00:47:00;12.2;86.8
9666;DHT22;4871;52.004;5.924;2023-10-31T00:48:00;12.2;86.6
9666;DHT22;4871;52.004;5.924;2023-10-31T00:49:00;12.2;86.7
9666;DHT22;4871;52.004;5.924;2023-10-31T00:50:00;12.2;86.8
9666;DHT22;4871;52.004;5.924;2023-10-31T00:51:00;12.1;86.9
9666;DHT22;4871;52.004;5.924;2023-10-31T00:52:00;12.1;86.8
9666;DHT22;4871;52.004;5.924;2023-10-31T00:53:00;12.1;86.6
9666;DHT22;4871;52.004;5.924;2023-10-31T00:54:00;12.1;86.9
9666;DHT22;4871;52.004;5.924;2023-10-31T00:55:00;12.1;87.1
9666;DHT22;4871;52.004;5.924;2023-10-31T00:56:01;12.1;87.0
9666;DHT22;4871;52.004;5.924;2023-10-31T00:57:00;12.0;87.3
9666;DHT22;4871;52.004;5.924;2023-10-31T00:58:00;12.1;87.0
9666;DHT22;4871;52.004;5.924;2023-10-31T00:59:00;12.1;87.0
9666;DHT22;4871;52.004;5.924;2023-10-31T01:00:00;12.1;86.6
9666;DHT22;4871;52.004;5.924;2023-10-31T01:01:00;12.1;86.7
9666;DHT22;4871;52.004;5.924;2023-10-31T01:02:00;12.1;86.7
9666;DHT22;4871;52.004;5.924;2023-10-31T01:03:00;12.1;86.7
9666;DHT22;4871;52.004;5.924;2023-10-31T01:04:00;12.1;86.6
9666;DHT22;4871;52.004;5.924;2023-10-31T01:05:00;12.0;87.0
9666;DHT22;4871;52.004;5.924;2023-10-31T01:06:00;12.1;86.6
9666;DHT22;4871;52.004;5.924;2023-10-31T01:07:00;12.0;86.6
9666;DHT22;4871;52.004;5.924;2023-10-31T01:08:00;12.1;86.6
9666;DHT22;4871;52.004;5.924;2023-10-31T01:09:00;12.0;86.4
9666;DHT22;4871;52.004;5.924;2023-10-31T01:10:00;12.0;86.8
9666;DHT22;4871;52.004;5.924;2023-10-31T01:11:00;12.0;86.7
9666;DHT22;4871;52.004;5.924;2023-10-31T01:12:00;12.0;86.5
9666;DHT22;4871;52.004;5.924;2023-10-31T01:13:00;12.0;86.7
9666;DHT22;4871;52.004;5.924;2023-10-31T01:14:00;11.9;86.7
9666;DHT22;4871;52.004;5.924;2023-10-31T01:15:01;11.9;87.0
9666;DHT22;4871;52.004;5.924;2023-10-31T01:16:00;11.9;86.9
9666;DHT22;4871;52.004;5.924;2023-10-31T01:17:00;11.8;86.8
9666;DHT22;4871;52.004;5.924;2023-10-31T01:18:00;11.8;87.1
9666;DHT22;4871;52.004;5.924;2023-10-31T01:19:00;11.8;87.2
9666;DHT22;4871;52.004;5.924;2023-10-31T01:20:00;11.8;86.8
9666;DHT22;4871;52.004;5.924;2023-10-31T01:21:01;11.8;87.1
9666;DHT22;4871;52.004;5.924;2023-10-31T01:22:00;11.9;86.8
9666;DHT22;4871;52.004;5.924;2023-10-31T01:23:01;11.8;86.7
9666;DHT22;4871;52.004;5.924;2023-10-31T01:24:00;11.8;86.7
9666;DHT22;4871;52.004;5.924;2023-10-31T01:25:00;11.8;86.9
9666;DHT22;4871;52.004;5.924;2023-10-31T01:26:00;11.8;86.9
9666;DHT22;4871;52.004;5.924;2023-10-31T01:27:00;11.8;86.9
9666;DHT22;4871;52.004;5.924;2023-10-31T01:28:00;11.9;86.7
9666;DHT22;4871;52.004;5.924;2023-10-31T01:29:00;11.8;86.7
9666;DHT22;4871;52.004;5.924;2023-10-31T01:30:00;11.8;86.6
9666;DHT22;4871;52.004;5.924;2023-10-31T01:31:00;11.8;86.7
9666;DHT22;4871;52.004;5.924;2023-10-31T01:32:00;11.8;87.1
9666;DHT22;4871;52.004;5.924;2023-10-31T01:33:00;11.8;87.0
9666;DHT22;4871;52.004;5.924;2023-10-31T01:34:00;11.8;86.7
9666;DHT22;4871;52.004;5.924;2023-10-31T01:35:00;11.8;86.8
9666;DHT22;4871;52.004;5.924;2023-10-31T01:36:00;11.8;86.7
9666;DHT22;4871;52.004;5.924;2023-10-31T01:37:00;11.8;86.9
9666;DHT22;4871;52.004;5.924;2023-10-31T01:38:00;11.8;86.9
9666;DHT22;4871;52.004;5.924;2023-10-31T01:39:00;11.8;86.8
9666;DHT22;4871;52.004;5.924;2023-10-31T01:40:00;11.8;86.8
9666;DHT22;4871;52.004;5.924;2023-10-31T01:41:00;11.8;86.4
9666;DHT22;4871;52.004;5.924;2023-10-31T01:42:00;11.8;86.5
9666;DHT22;4871;52.004;5.924;2023-10-31T01:43:00;11.8;86.5
9666;DHT22;4871;52.004;5.924;2023-10-31T01:44:00;11.8;86.7
9666;DHT22;4871;52.004;5.924;2023-10-31T01:45:00;11.8;86.8
9666;DHT22;4871;52.004;5.924;2023-10-31T01:46:00;11.7;86.9
9666;DHT22;4871;52.004;5.924;2023-10-31T01:47:00;11.7;86.7
9666;DHT22;4871;52.004;5.924;2023-10-31T01:48:00;11.7;86.6
9666;DHT22;4871;52.004;5.924;2023-10-31T01:49:00;11.8;86.7
9666;DHT22;4871;52.004;5.924;2023-10-31T01:50:00;11.8;86.6
9666;DHT22;4871;52.004;5.924;2023-10-31T01:51:03;11.8;86.6
9666;DHT22;4871;52.004;5.924;2023-10-31T01:52:01;11.8;86.7
9666;DHT22;4871;52.004;5.924;2023-10-31T01:53:00;11.8;86.7
9666;DHT22;4871;52.004;5.924;2023-10-31T01:54:00;11.8;86.8
9666;DHT22;4871;52.004;5.924;2023-10-31T01:55:01;11.8;86.4
9666;DHT22;4871;52.004;5.924;2023-10-31T01:56:04;11.7;86.5
9666;DHT22;4871;52.004;5.924;2023-10-31T01:57:01;11.8;86.7
9666;DHT22;4871;52.004;5.924;2023-10-31T01:58:01;11.7;86.6
9666;DHT22;4871;52.004;5.924;2023-10-31T01:59:00;11.7;86.7
9666;DHT22;4871;52.004;5.924;2023-10-31T02:00:00;11.7;86.6
9666;DHT22;4871;52.004;5.924;2023-10-31T02:01:01;11.7;86.7
9666;DHT22;4871;52.004;5.924;2023-10-31T02:02:00;11.7;86.9
9666;DHT22;4871;52.004;5.924;2023-10-31T02:03:01;11.7;86.8
9666;DHT22;4871;52.004;5.924;2023-10-31T02:04:03;11.7;86.7
9666;DHT22;4871;52.004;5.924;2023-10-31T02:05:00;11.7;86.5
9666;DHT22;4871;52.004;5.924;2023-10-31T02:06:00;11.7;86.9
9666;DHT22;4871;52.004;5.924;2023-10-31T02:07:00;11.7;86.6
9666;DHT22;4871;52.004;5.924;2023-10-31T02:08:00;11.6;86.6
9666;DHT22;4871;52.004;5.924;2023-10-31T02:09:00;11.7;86.8
9666;DHT22;4871;52.004;5.924;2023-10-31T02:10:00;11.7;86.9
9666;DHT22;4871;52.004;5.924;2023-10-31T02:11:00;11.7;86.6
9666;DHT22;4871;52.004;5.924;2023-10-31T02:12:00;11.7;86.6
9666;DHT22;4871;52.004;5.924;2023-10-31T02:13:09;11.7;86.7
9666;DHT22;4871;52.004;5.924;2023-10-31T02:14:00;11.7;86.5
9666;DHT22;4871;52.004;5.924;2023-10-31T02:15:01;11.7;86.5
9666;DHT22;4871;52.004;5.924;2023-10-31T02:16:01;11.7;86.5
9666;DHT22;4871;52.004;5.924;2023-10-31T02:17:00;11.7;86.7
9666;DHT22;4871;52.004;5.924;2023-10-31T02:18:00;11.7;86.6
9666;DHT22;4871;52.004;5.924;2023-10-31T02:19:00;11.7;86.6
9666;DHT22;4871;52.004;5.924;2023-10-31T02:20:00;11.7;86.6
9666;DHT22;4871;52.004;5.924;2023-10-31T02:21:00;11.7;86.6
9666;DHT22;4871;52.004;5.924;2023-10-31T02:22:00;11.7;86.7
9666;DHT22;4871;52.004;5.924;2023-10-31T02:23:00;11.7;86.3
9666;DHT22;4871;52.004;5.924;2023-10-31T02:24:02;11.6;86.7
9666;DHT22;4871;52.004;5.924;2023-10-31T02:25:00;11.7;86.7
9666;DHT22;4871;52.004;5.924;2023-10-31T02:26:02;11.7;86.6
9666;DHT22;4871;52.004;5.924;2023-10-31T02:27:02;11.7;86.6
9666;DHT22;4871;52.004;5.924;2023-10-31T02:28:00;11.7;86.6
9666;DHT22;4871;52.004;5.924;2023-10-31T02:29:01;11.6;86.7
9666;DHT22;4871;52.004;5.924;2023-10-31T02:30:01;11.7;86.7
9666;DHT22;4871;52.004;5.924;2023-10-31T02:31:00;11.7;86.6
9666;DHT22;4871;52.004;5.924;2023-10-31T02:32:00;11.6;86.6
9666;DHT22;4871;52.004;5.924;2023-10-31T02:33:00;11.7;86.5
9666;DHT22;4871;52.004;5.924;2023-10-31T02:34:00;11.7;86.6
9666;DHT22;4871;52.004;5.924;2023-10-31T02:35:00;11.7;86.5
9666;DHT22;4871;52.004;5.924;2023-10-31T02:36:00;11.7;86.4
9666;DHT22;4871;52.004;5.924;2023-10-31T02:37:00;11.7;86.5
9666;DHT22;4871;52.004;5.924;2023-10-31T02:38:00;11.7;86.5
9666;DHT22;4871;52.004;5.924;2023-10-31T02:39:00;11.7;86.5
9666;DHT22;4871;52.004;5.924;2023-10-31T02:40:00;11.6;86.5
9666;DHT22;4871;52.004;5.924;2023-10-31T02:41:00;11.6;86.6
9666;DHT22;4871;52.004;5.924;2023-10-31T02:42:01;11.6;86.5
9666;DHT22;4871;52.004;5.924;2023-10-31T02:43:01;11.6;86.3
9666;DHT22;4871;52.004;5.924;2023-10-31T02:44:00;11.6;86.6
9666;DHT22;4871;52.004;5.924;2023-10-31T02:45:00;11.6;86.5
9666;DHT22;4871;52.004;5.924;2023-10-31T02:46:00;11.6;86.6
9666;DHT22;4871;52.004;5.924;2023-10-31T02:47:00;11.6;86.5
9666;DHT22;4871;52.004;5.924;2023-10-31T02:48:00;11.6;86.7
9666;DHT22;4871;52.004;5.924;2023-10-31T02:49:00;11.6;86.6
9666;DHT22;4871;52.004;5.924;2023-10-31T02:50:00;11.6;86.6
9666;DHT22;4871;52.004;5.924;2023-10-31T02:51:00;11.7;86.6
9666;DHT22;4871;52.004;5.924;2023-10-31T02:52:00;11.6;86.5
9666;DHT22;4871;52.004;5.924;2023-10-31T02:53:00;11.6;86.6
9666;DHT22;4871;52.004;5.924;2023-10-31T02:54:00;11.6;87.0
9666;DHT22;4871;52.004;5.924;2023-10-31T02:55:00;11.6;86.7
9666;DHT22;4871;52.004;5.924;2023-10-31T02:56:00;11.6;86.7
9666;DHT22;4871;52.004;5.924;2023-10-31T02:57:00;11.6;86.6
9666;DHT22;4871;52.004;5.924;2023-10-31T02:58:00;11.6;86.6
9666;DHT22;4871;52.004;5.924;2023-10-31T02:59:00;11.6;86.6
9666;DHT22;4871;52.004;5.924;2023-10-31T03:00:01;11.6;86.5
9666;DHT22;4871;52.004;5.924;2023-10-31T03:01:00;11.6;86.5
9666;DHT22;4871;52.004;5.924;2023-10-31T03:02:00;11.6;86.6
9666;DHT22;4871;52.004;5.924;2023-10-31T03:03:00;11.6;86.6
9666;DHT22;4871;52.004;5.924;2023-10-31T03:04:00;11.6;86.5
9666;DHT22;4871;52.004;5.924;2023-10-31T03:05:00;11.6;86.5
9666;DHT22;4871;52.004;5.924;2023-10-31T03:06:00;11.6;86.6
9666;DHT22;4871;52.004;5.924;2023-10-31T03:07:00;11.6;86.6
9666;DHT22;4871;52.004;5.924;2023-10-31T03:08:00;11.6;86.7
9666;DHT22;4871;52.004;5.924;2023-10-31T03:09:00;11.6;86.6
9666;DHT22;4871;52.004;5.924;2023-10-31T03:10:01;11.6;86.6
9666;DHT22;4871;52.004;5.924;2023-10-31T03:11:00;11.6;86.6
9666;DHT22;4871;52.004;5.924;2023-10-31T03:12:00;11.6;86.7
9666;DHT22;4871;52.004;5.924;2023-10-31T03:13:00;11.6;86.5
9666;DHT22;4871;52.004;5.924;2023-10-31T03:14:00;11.6;86.6
9666;DHT22;4871;52.004;5.924;2023-10-31T03:15:00;11.6;86.6
9666;DHT22;4871;52.004;5.924;2023-10-31T03:16:00;11.6;86.8
9666;DHT22;4871;52.004;5.924;2023-10-31T03:17:00;11.6;86.9
9666;DHT22;4871;52.004;5.924;2023-10-31T03:18:00;11.6;86.9
9666;DHT22;4871;52.004;5.924;2023-10-31T03:19:00;11.6;86.9
9666;DHT22;4871;52.004;5.924;2023-10-31T03:20:00;11.6;87.1
9666;DHT22;4871;52.004;5.924;2023-10-31T03:21:00;11.6;87.0
9666;DHT22;4871;52.004;5.924;2023-10-31T03:22:00;11.6;86.9
9666;DHT22;4871;52.004;5.924;2023-10-31T03:23:00;11.6;87.0
9666;DHT22;4871;52.004;5.924;2023-10-31T03:24:00;11.6;87.0
9666;DHT22;4871;52.004;5.924;2023-10-31T03:25:01;11.6;86.9
9666;DHT22;4871;52.004;5.924;2023-10-31T03:26:00;11.6;86.9
9666;DHT22;4871;52.004;5.924;2023-10-31T03:27:00;11.6;86.8
9666;DHT22;4871;52.004;5.924;2023-10-31T03:28:01;11.6;86.8
9666;DHT22;4871;52.004;5.924;2023-10-31T03:29:00;11.6;87.0
9666;DHT22;4871;52.004;5.924;2023-10-31T03:30:00;11.6;87.0
9666;DHT22;4871;52.004;5.924;2023-10-31T03:31:00;11.6;87.0
9666;DHT22;4871;52.004;5.924;2023-10-31T03:32:00;11.6;87.0
9666;DHT22;4871;52.004;5.924;2023-10-31T03:33:01;11.6;87.0
9666;DHT22;4871;52.004;5.924;2023-10-31T03:34:00;11.5;87.3
9666;DHT22;4871;52.004;5.924;2023-10-31T03:35:00;11.5;87.4
9666;DHT22;4871;52.004;5.924;2023-10-31T03:36:00;11.5;87.2
9666;DHT22;4871;52.004;5.924;2023-10-31T03:37:00;11.5;87.2
9666;DHT22;4871;52.004;5.924;2023-10-31T03:38:00;11.6;87.0
9666;DHT22;4871;52.004;5.924;2023-10-31T03:39:00;11.6;87.0
9666;DHT22;4871;52.004;5.924;2023-10-31T03:40:04;11.5;87.2
9666;DHT22;4871;52.004;5.924;2023-10-31T03:41:00;11.6;87.1
9666;DHT22;4871;52.004;5.924;2023-10-31T03:42:00;11.6;87.1
9666;DHT22;4871;52.004;5.924;2023-10-31T03:43:00;11.5;87.3
9666;DHT22;4871;52.004;5.924;2023-10-31T03:44:00;11.5;87.5
9666;DHT22;4871;52.004;5.924;2023-10-31T03:45:00;11.5;87.3
9666;DHT22;4871;52.004;5.924;2023-10-31T03:46:00;11.5;87.3
9666;DHT22;4871;52.004;5.924;2023-10-31T03:47:00;11.6;87.2
9666;DHT22;4871;52.004;5.924;2023-10-31T03:48:00;11.6;87.1
9666;DHT22;4871;52.004;5.924;2023-10-31T03:49:00;11.6;87.2
9666;DHT22;4871;52.004;5.924;2023-10-31T03:50:00;11.6;86.8
9666;DHT22;4871;52.004;5.924;2023-10-31T03:51:00;11.6;86.9
9666;DHT22;4871;52.004;5.924;2023-10-31T03:52:00;11.6;87.0
9666;DHT22;4871;52.004;5.924;2023-10-31T03:53:00;11.6;86.9
9666;DHT22;4871;52.004;5.924;2023-10-31T03:54:00;11.6;86.9
9666;DHT22;4871;52.004;5.924;2023-10-31T03:55:00;11.5;87.1
9666;DHT22;4871;52.004;5.924;2023-10-31T03:56:00;11.5;87.3
9666;DHT22;4871;52.004;5.924;2023-10-31T03:57:00;11.5;87.3
9666;DHT22;4871;52.004;5.924;2023-10-31T03:58:00;11.5;87.2
9666;DHT22;4871;52.004;5.924;2023-10-31T03:59:00;11.5;87.0
9666;DHT22;4871;52.004;5.924;2023-10-31T04:00:00;11.5;87.3
9666;DHT22;4871;52.004;5.924;2023-10-31T04:01:00;11.5;87.4
9666;DHT22;4871;52.004;5.924;2023-10-31T04:02:00;11.5;87.4
9666;DHT22;4871;52.004;5.924;2023-10-31T04:03:00;11.5;87.4
9666;DHT22;4871;52.004;5.924;2023-10-31T04:04:00;11.5;87.5
9666;DHT22;4871;52.004;5.924;2023-10-31T04:05:00;11.5;87.6
9666;DHT22;4871;52.004;5.924;2023-10-31T04:06:00;11.5;87.4
9666;DHT22;4871;52.004;5.924;2023-10-31T04:07:00;11.5;87.2
9666;DHT22;4871;52.004;5.924;2023-10-31T04:08:01;11.5;87.0
9666;DHT22;4871;52.004;5.924;2023-10-31T04:09:00;11.5;87.0
9666;DHT22;4871;52.004;5.924;2023-10-31T04:10:00;11.6;86.8
9666;DHT22;4871;52.004;5.924;2023-10-31T04:11:00;11.6;86.9
9666;DHT22;4871;52.004;5.924;2023-10-31T04:12:00;11.6;86.9
9666;DHT22;4871;52.004;5.924;2023-10-31T04:13:00;11.5;86.9
9666;DHT22;4871;52.004;5.924;2023-10-31T04:14:00;11.5;86.9
9666;DHT22;4871;52.004;5.924;2023-10-31T04:15:00;11.5;86.9
9666;DHT22;4871;52.004;5.924;2023-10-31T04:16:00;11.5;87.0
9666;DHT22;4871;52.004;5.924;2023-10-31T04:17:00;11.5;87.0
9666;DHT22;4871;52.004;5.924;2023-10-31T04:18:00;11.5;86.9
9666;DHT22;4871;52.004;5.924;2023-10-31T04:19:00;11.5;87.2
9666;DHT22;4871;52.004;5.924;2023-10-31T04:20:00;11.5;87.0
9666;DHT22;4871;52.004;5.924;2023-10-31T04:21:00;11.5;86.9
9666;DHT22;4871;52.004;5.924;2023-10-31T04:22:00;11.5;87.1
9666;DHT22;4871;52.004;5.924;2023-10-31T04:23:00;11.5;87.1
9666;DHT22;4871;52.004;5.924;2023-10-31T04:24:01;11.5;87.2
9666;DHT22;4871;52.004;5.924;2023-10-31T04:25:00;11.5;87.0
9666;DHT22;4871;52.004;5.924;2023-10-31T04:26:01;11.5;87.1
9666;DHT22;4871;52.004;5.924;2023-10-31T04:27:00;11.5;87.1
9666;DHT22;4871;52.004;5.924;2023-10-31T04:28:00;11.5;87.0
9666;DHT22;4871;52.004;5.924;2023-10-31T04:29:00;11.5;87.1
9666;DHT22;4871;52.004;5.924;2023-10-31T04:30:00;11.5;87.1
9666;DHT22;4871;52.004;5.924;2023-10-31T04:31:00;11.5;86.9
9666;DHT22;4871;52.004;5.924;2023-10-31T04:32:00;11.5;87.1
9666;DHT22;4871;52.004;5.924;2023-10-31T04:33:00;11.5;87.1
9666;DHT22;4871;52.004;5.924;2023-10-31T04:34:00;11.5;87.3
9666;DHT22;4871;52.004;5.924;2023-10-31T04:35:00;11.4;87.4
9666;DHT22;4871;52.004;5.924;2023-10-31T04:36:02;11.4;87.4
9666;DHT22;4871;52.004;5.924;2023-10-31T04:37:00;11.5;87.5
9666;DHT22;4871;52.004;5.924;2023-10-31T04:38:00;11.4;87.2
9666;DHT22;4871;52.004;5.924;2023-10-31T04:39:00;11.5;87.2
9666;DHT22;4871;52.004;5.924;2023-10-31T04:40:00;11.5;87.2
9666;DHT22;4871;52.004;5.924;2023-10-31T04:41:00;11.4;87.1
9666;DHT22;4871;52.004;5.924;2023-10-31T04:42:00;11.5;87.3
9666;DHT22;4871;52.004;5.924;2023-10-31T04:43:01;11.5;87.3
9666;DHT22;4871;52.004;5.924;2023-10-31T04:44:00;11.5;87.1
9666;DHT22;4871;52.004;5.924;2023-10-31T04:45:00;11.5;87.2
9666;DHT22;4871;52.004;5.924;2023-10-31T04:46:00;11.4;87.3
9666;DHT22;4871;52.004;5.924;2023-10-31T04:47:00;11.5;86.9
9666;DHT22;4871;52.004;5.924;2023-10-31T04:48:00;11.5;87.1
9666;DHT22;4871;52.004;5.924;2023-10-31T04:49:00;11.5;87.0
9666;DHT22;4871;52.004;5.924;2023-10-31T04:50:00;11.5;87.2
9666;DHT22;4871;52.004;5.924;2023-10-31T04:51:00;11.5;87.0
9666;DHT22;4871;52.004;5.924;2023-10-31T04:52:00;11.5;87.1
9666;DHT22;4871;52.004;5.924;2023-10-31T04:53:00;11.5;87.0
9666;DHT22;4871;52.004;5.924;2023-10-31T04:54:00;11.4;87.1
9666;DHT22;4871;52.004;5.924;2023-10-31T04:55:00;11.4;87.2
9666;DHT22;4871;52.004;5.924;2023-10-31T04:56:00;11.4;87.1
9666;DHT22;4871;52.004;5.924;2023-10-31T04:57:00;11.5;87.1
9666;DHT22;4871;52.004;5.924;2023-10-31T04:58:00;11.5;87.0
9666;DHT22;4871;52.004;5.924;2023-10-31T04:59:00;11.5;86.9
9666;DHT22;4871;52.004;5.924;2023-10-31T05:00:00;11.4;87.1
9666;DHT22;4871;52.004;5.924;2023-10-31T05:01:00;11.4;87.1
9666;DHT22;4871;52.004;5.924;2023-10-31T05:02:00;11.4;86.9
9666;DHT22;4871;52.004;5.924;2023-10-31T05:03:02;11.4;87.1
9666;DHT22;4871;52.004;5.924;2023-10-31T05:04:00;11.4;87.0
9666;DHT22;4871;52.004;5.924;2023-10-31T05:05:01;11.4;87.1
9666;DHT22;4871;52.004;5.924;2023-10-31T05:06:00;11.5;86.9
9666;DHT22;4871;52.004;5.924;2023-10-31T05:07:00;11.5;86.8
9666;DHT22;4871;52.004;5.924;2023-10-31T05:08:00;11.5;86.9
9666;DHT22;4871;52.004;5.924;2023-10-31T05:09:00;11.4;87.0
9666;DHT22;4871;52.004;5.924;2023-10-31T05:10:00;11.4;86.9
9666;DHT22;4871;52.004;5.924;2023-10-31T05:11:00;11.4;86.9
9666;DHT22;4871;52.004;5.924;2023-10-31T05:12:00;11.4;87.1
9666;DHT22;4871;52.004;5.924;2023-10-31T05:13:00;11.4;87.2
9666;DHT22;4871;52.004;5.924;2023-10-31T05:14:00;11.4;87.0
9666;DHT22;4871;52.004;5.924;2023-10-31T05:15:00;11.4;86.9
9666;DHT22;4871;52.004;5.924;2023-10-31T05:16:00;11.4;87.0
9666;DHT22;4871;52.004;5.924;2023-10-31T05:17:00;11.4;87.0
9666;DHT22;4871;52.004;5.924;2023-10-31T05:18:00;11.4;87.1
9666;DHT22;4871;52.004;5.924;2023-10-31T05:19:04;11.4;86.9
9666;DHT22;4871;52.004;5.924;2023-10-31T05:20:00;11.4;86.9
9666;DHT22;4871;52.004;5.924;2023-10-31T05:21:00;11.4;86.9
9666;DHT22;4871;52.004;5.924;2023-10-31T05:22:00;11.4;87.0
9666;DHT22;4871;52.004;5.924;2023-10-31T05:23:00;11.4;87.0
9666;DHT22;4871;52.004;5.924;2023-10-31T05:24:00;11.4;87.0
9666;DHT22;4871;52.004;5.924;2023-10-31T05:25:00;11.4;86.9
9666;DHT22;4871;52.004;5.924;2023-10-31T05:26:00;11.4;86.8
9666;DHT22;4871;52.004;5.924;2023-10-31T05:27:00;11.4;86.9
9666;DHT22;4871;52.004;5.924;2023-10-31T05:28:00;11.4;86.9
9666;DHT22;4871;52.004;5.924;2023-10-31T05:29:00;11.4;86.7
9666;DHT22;4871;52.004;5.924;2023-10-31T05:30:00;11.4;86.9
9666;DHT22;4871;52.004;5.924;2023-10-31T05:31:01;11.4;86.8
9666;DHT22;4871;52.004;5.924;2023-10-31T05:32:01;11.4;86.8
9666;DHT22;4871;52.004;5.924;2023-10-31T05:33:00;11.3;87.0
9666;DHT22;4871;52.004;5.924;2023-10-31T05:34:00;11.3;86.9
9666;DHT22;4871;52.004;5.924;2023-10-31T05:35:00;11.3;86.9
9666;DHT22;4871;52.004;5.924;2023-10-31T05:36:00;11.3;87.1
9666;DHT22;4871;52.004;5.924;2023-10-31T05:37:00;11.3;87.2
9666;DHT22;4871;52.004;5.924;2023-10-31T05:38:00;11.3;86.9
9666;DHT22;4871;52.004;5.924;2023-10-31T05:39:00;11.3;86.8
9666;DHT22;4871;52.004;5.924;2023-10-31T05:40:01;11.3;86.9
9666;DHT22;4871;52.004;5.924;2023-10-31T05:41:00;11.3;86.7
9666;DHT22;4871;52.004;5.924;2023-10-31T05:42:00;11.3;86.8
9666;DHT22;4871;52.004;5.924;2023-10-31T05:43:00;11.3;86.8
9666;DHT22;4871;52.004;5.924;2023-10-31T05:44:00;11.3;86.8
9666;DHT22;4871;52.004;5.924;2023-10-31T05:45:00;11.3;86.7
9666;DHT22;4871;52.004;5.924;2023-10-31T05:46:00;11.3;86.7
9666;DHT22;4871;52.004;5.924;2023-10-31T05:47:00;11.3;86.8
9666;DHT22;4871;52.004;5.924;2023-10-31T05:48:00;11.3;86.7
9666;DHT22;4871;52.004;5.924;2023-10-31T05:49:00;11.3;86.7
9666;DHT22;4871;52.004;5.924;2023-10-31T05:50:00;11.3;87.0
9666;DHT22;4871;52.004;5.924;2023-10-31T05:51:00;11.3;86.9
9666;DHT22;4871;52.004;5.924;2023-10-31T05:52:00;11.3;86.9
9666;DHT22;4871;52.004;5.924;2023-10-31T05:53:00;11.3;87.0
9666;DHT22;4871;52.004;5.924;2023-10-31T05:54:01;11.3;86.8
9666;DHT22;4871;52.004;5.924;2023-10-31T05:55:00;11.3;86.8
9666;DHT22;4871;52.004;5.924;2023-10-31T05:56:00;11.3;86.8
9666;DHT22;4871;52.004;5.924;2023-10-31T05:57:00;11.3;86.9
9666;DHT22;4871;52.004;5.924;2023-10-31T05:58:00;11.3;86.7
9666;DHT22;4871;52.004;5.924;2023-10-31T05:59:00;11.2;87.0
9666;DHT22;4871;52.004;5.924;2023-10-31T06:00:00;11.2;86.9
9666;DHT22;4871;52.004;5.924;2023-10-31T06:01:00;11.3;86.9
9666;DHT22;4871;52.004;5.924;2023-10-31T06:02:00;11.3;86.8
9666;DHT22;4871;52.004;5.924;2023-10-31T06:03:01;11.2;86.7
9666;DHT22;4871;52.004;5.924;2023-10-31T06:04:00;11.2;86.8
9666;DHT22;4871;52.004;5.924;2023-10-31T06:05:00;11.3;86.7
9666;DHT22;4871;52.004;5.924;2023-10-31T06:06:00;11.2;86.8
9666;DHT22;4871;52.004;5.924;2023-10-31T06:07:00;11.2;86.9
9666;DHT22;4871;52.004;5.924;2023-10-31T06:08:01;11.3;86.8
9666;DHT22;4871;52.004;5.924;2023-10-31T06:09:00;11.2;87.0
9666;DHT22;4871;52.004;5.924;2023-10-31T06:10:00;11.2;86.9
9666;DHT22;4871;52.004;5.924;2023-10-31T06:11:00;11.2;86.8
9666;DHT22;4871;52.004;5.924;2023-10-31T06:12:00;11.2;86.9
9666;DHT22;4871;52.004;5.924;2023-10-31T06:13:00;11.2;86.8
9666;DHT22;4871;52.004;5.924;2023-10-31T06:14:00;11.2;86.9
9666;DHT22;4871;52.004;5.924;2023-10-31T06:15:00;11.2;87.0
9666;DHT22;4871;52.004;5.924;2023-10-31T06:16:00;11.2;86.8
9666;DHT22;4871;52.004;5.924;2023-10-31T06:17:01;11.2;87.0
9666;DHT22;4871;52.004;5.924;2023-10-31T06:18:00;11.2;86.8
9666;DHT22;4871;52.004;5.924;2023-10-31T06:19:00;11.2;86.9
9666;DHT22;4871;52.004;5.924;2023-10-31T06:20:01;11.2;87.0
9666;DHT22;4871;52.004;5.924;2023-10-31T06:21:00;11.2;86.9
9666;DHT22;4871;52.004;5.924;2023-10-31T06:22:00;11.2;87.1
9666;DHT22;4871;52.004;5.924;2023-10-31T06:23:00;11.2;87.0
9666;DHT22;4871;52.004;5.924;2023-10-31T06:24:00;11.2;86.9
9666;DHT22;4871;52.004;5.924;2023-10-31T06:25:01;11.2;87.0
9666;DHT22;4871;52.004;5.924;2023-10-31T06:26:00;11.2;86.8
9666;DHT22;4871;52.004;5.924;2023-10-31T06:27:00;11.2;86.8
9666;DHT22;4871;52.004;5.924;2023-10-31T06:28:00;11.2;86.9
9666;DHT22;4871;52.004;5.924;2023-10-31T06:29:00;11.2;86.9
9666;DHT22;4871;52.004;5.924;2023-10-31T06:30:00;11.1;86.8
9666;DHT22;4871;52.004;5.924;2023-10-31T06:31:02;11.1;86.8
9666;DHT22;4871;52.004;5.924;2023-10-31T06:32:01;11.1;86.9
9666;DHT22;4871;52.004;5.924;2023-10-31T06:33:00;11.1;87.0
9666;DHT22;4871;52.004;5.924;2023-10-31T06:34:00;11.1;86.8
9666;DHT22;4871;52.004;5.924;2023-10-31T06:35:00;11.1;86.9
9666;DHT22;4871;52.004;5.924;2023-10-31T06:36:01;11.1;86.8
9666;DHT22;4871;52.004;5.924;2023-10-31T06:37:00;11.1;86.8
9666;DHT22;4871;52.004;5.924;2023-10-31T06:38:01;11.1;86.9
9666;DHT22;4871;52.004;5.924;2023-10-31T06:39:00;11.1;86.9
9666;DHT22;4871;52.004;5.924;2023-10-31T06:40:00;11.1;86.9
9666;DHT22;4871;52.004;5.924;2023-10-31T06:41:00;11.1;87.1
9666;DHT22;4871;52.004;5.924;2023-10-31T06:42:00;11.1;86.9
9666;DHT22;4871;52.004;5.924;2023-10-31T06:43:01;11.1;86.8
9666;DHT22;4871;52.004;5.924;2023-10-31T06:44:00;11.1;86.9